Time;durP1;ratioP1;P1;durP2;ratioP2;P2;SDS_P1;SDS_P2;PMS_P1;PMS_P2;Temp;Humidity;BMP_temperature;BMP_pressure;BME280_temperature;BME280_humidity;BME280_pressure;Samples;Min_cycle;Max_cycle;Signal;HPM_P1;HPM_P2
2021/03/21 00:01:56;;;;;;;0.80;0.80;;;;;;;0.44;48.63;97535.38;299395;272;63009;-55
2021/03/21 00:06:57;;;;;;;0.80;0.80;;;;;;;0.50;48.47;97523.84;299395;213;63004;-55
2021/03/21 00:11:59;;;;;;;0.80;0.80;;;;;;;0.50;49.17;97517.69;299394;214;64013;-56
2021/03/21 00:17:02;;;;;;;0.80;0.80;;;;;;;0.44;49.25;97519.34;299395;221;63005;-55
2021/03/21 00:22:04;;;;;;;0.80;0.80;;;;;;;0.52;48.73;97513.75;299395;241;63009;-56
2021/03/21 00:27:07;;;;;;;0.80;0.80;;;;;;;0.63;47.30;97513.09;299395;222;63005;-55
2021/03/21 00:32:10;;;;;;;0.70;0.70;;;;;;;0.50;48.53;97507.81;299395;235;63020;-56
2021/03/21 00:37:12;;;;;;;0.80;0.80;;;;;;;0.62;46.73;97506.13;299395;237;63004;-55
2021/03/21 00:42:13;;;;;;;0.80;0.80;;;;;;;0.56;47.32;97506.97;299395;239;63009;-55
2021/03/21 00:47:16;;;;;;;0.80;0.80;;;;;;;0.65;46.45;97499.53;299395;252;63005;-54
2021/03/21 00:52:17;;;;;;;0.70;0.70;;;;;;;0.73;45.16;97488.56;299395;219;63009;-55
2021/03/21 00:57:18;;;;;;;0.80;0.80;;;;;;;0.73;45.28;97483.22;299395;209;63005;-55
2021/03/21 01:02:19;;;;;;;0.80;0.80;;;;;;;0.60;46.77;97486.81;299395;202;63009;-55
2021/03/21 01:07:20;;;;;;;0.80;0.80;;;;;;;0.55;47.46;97486.63;299395;225;63004;-55
2021/03/21 01:12:21;;;;;;;0.80;0.80;;;;;;;0.57;47.27;97465.88;299395;220;63009;-55
2021/03/21 01:17:22;;;;;;;0.80;0.80;;;;;;;0.78;45.96;97475.38;299395;222;63005;-56
2021/03/21 01:22:23;;;;;;;0.80;0.80;;;;;;;0.76;45.28;97457.94;299395;266;63009;-55
2021/03/21 01:27:28;;;;;;;0.80;0.80;;;;;;;0.63;46.83;97443.66;299395;220;63004;-56
2021/03/21 01:32:29;;;;;;;0.80;0.80;;;;;;;0.60;46.16;97454.75;299417;268;63009;-56
2021/03/21 01:37:30;;;;;;;0.80;0.80;;;;;;;0.58;46.76;97456.84;299395;202;63004;-55
2021/03/21 01:42:37;;;;;;;0.80;0.80;;;;;;;0.57;47.54;97444.50;299395;237;63009;-56
2021/03/21 01:47:40;;;;;;;0.80;0.80;;;;;;;0.57;47.40;97444.50;299395;253;63005;-55
2021/03/21 01:52:41;;;;;;;0.80;0.80;;;;;;;0.44;47.90;97439.25;299395;235;63008;-56
2021/03/21 01:57:43;;;;;;;0.80;0.80;;;;;;;0.68;46.55;97428.84;299395;208;63004;-54
2021/03/21 02:02:45;;;;;;;0.80;0.80;;;;;;;0.68;46.69;97424.31;299395;232;63009;-56
2021/03/21 02:08:19;;;;;;;0.80;0.80;;;;;;;0.59;46.96;97418.41;299395;220;63004;-56
2021/03/21 02:13:26;;;;;;;0.80;0.80;;;;;;;0.49;47.96;97423.41;299395;210;63020;-55
2021/03/21 02:18:57;;;;;;;0.80;0.80;;;;;;;0.59;47.25;97414.94;299395;202;63005;-56
2021/03/21 02:24:50;;;;;;;0.80;0.80;;;;;;;0.74;45.06;97395.88;299395;230;63009;-55
2021/03/21 02:30:27;;;;;;;0.80;0.80;;;;;;;0.65;46.17;97403.38;299395;240;63004;-55
2021/03/21 02:36:02;;;;;;;0.80;0.80;;;;;;;0.64;46.76;97393.72;299396;206;63009;-55
2021/03/21 02:41:35;;;;;;;0.80;0.80;;;;;;;0.67;46.42;97395.97;299396;211;63005;-55
2021/03/21 02:46:40;;;;;;;0.80;0.80;;;;;;;0.60;46.70;97373.84;299396;226;63009;-55
2021/03/21 02:51:46;;;;;;;0.80;0.80;;;;;;;0.49;47.82;97386.03;299396;216;63004;-56
2021/03/21 02:56:52;;;;;;;0.80;0.80;;;;;;;0.52;48.31;97376.75;299396;205;63009;-55
2021/03/21 03:02:02;;;;;;;0.80;0.80;;;;;;;0.66;47.48;97362.28;299396;239;63005;-56
2021/03/21 03:07:21;;;;;;;0.77;0.77;;;;;;;0.57;48.41;97364.41;299396;212;63008;-55
2021/03/21 03:12:31;;;;;;;0.80;0.80;;;;;;;0.63;47.75;97350.19;299396;197;63004;-56
2021/03/21 03:17:59;;;;;;;0.70;0.70;;;;;;;0.62;47.29;97351.22;299396;212;63009;-55
2021/03/21 03:23:21;;;;;;;0.70;0.70;;;;;;;0.57;48.21;97356.41;299397;257;63005;-55
2021/03/21 03:28:53;;;;;;;0.80;0.80;;;;;;;0.61;47.86;97338.91;299396;213;63009;-55
2021/03/21 03:33:54;;;;;;;0.80;0.80;;;;;;;0.58;47.91;97330.50;299396;280;63005;-55
2021/03/21 03:38:55;;;;;;;0.80;0.80;;;;;;;0.50;49.45;97330.78;299396;231;63009;-55
2021/03/21 03:44:20;;;;;;;0.80;0.80;;;;;;;0.48;49.77;97339.00;299396;223;63004;-56
2021/03/21 03:49:58;;;;;;;0.77;0.77;;;;;;;0.49;49.05;97324.63;299396;206;63009;-56
2021/03/21 03:55:28;;;;;;;0.80;0.80;;;;;;;0.44;49.62;97332.47;299396;229;63000;-54
2021/03/21 04:01:15;;;;;;;0.73;0.73;;;;;;;0.62;48.65;97332.53;299396;212;63017;-56
2021/03/21 04:06:58;;;;;;;0.80;0.80;;;;;;;0.56;49.49;97328.06;299418;224;63004;-55
2021/03/21 04:12:10;;;;;;;0.80;0.80;;;;;;;0.62;49.46;97319.16;299396;245;63009;-55
2021/03/21 04:17:24;;;;;;;0.80;0.80;;;;;;;0.62;48.62;97311.16;299397;215;63008;-55
2021/03/21 04:22:31;;;;;;;0.80;0.80;;;;;;;0.52;50.07;97318.84;299395;264;63009;-55
2021/03/21 04:27:40;;;;;;;0.80;0.80;;;;;;;0.71;48.74;97306.34;299395;260;63004;-55
2021/03/21 04:32:47;;;;;;;0.80;0.80;;;;;;;0.61;50.17;97306.84;299395;206;63009;-55
2021/03/21 04:37:56;;;;;;;0.80;0.80;;;;;;;0.60;49.72;97299.88;299395;198;63005;-55
2021/03/21 04:43:05;;;;;;;0.80;0.80;;;;;;;0.54;51.05;97298.09;299395;206;63009;-55
2021/03/21 04:48:13;;;;;;;0.80;0.80;;;;;;;0.70;49.28;97293.19;299395;221;63005;-55
2021/03/21 04:53:27;;;;;;;0.80;0.80;;;;;;;0.81;48.73;97284.47;299395;197;63009;-56
2021/03/21 04:58:37;;;;;;;0.80;0.80;;;;;;;0.76;49.36;97271.78;299395;275;63004;-56
2021/03/21 05:03:43;;;;;;;0.77;0.77;;;;;;;0.84;49.00;97268.00;299394;221;64009;-56
2021/03/21 05:09:02;;;;;;;0.80;0.80;;;;;;;0.84;49.21;97268.00;299395;229;63005;-55
2021/03/21 05:14:11;;;;;;;0.80;0.80;;;;;;;0.68;50.45;97277.41;299395;245;63014;-55
2021/03/21 05:19:42;;;;;;;0.73;0.73;;;;;;;0.61;51.60;97285.50;299395;197;63004;-56
2021/03/21 05:25:12;;;;;;;0.80;0.80;;;;;;;0.56;52.40;97301.34;299395;268;63009;-55
2021/03/21 05:30:20;;;;;;;0.80;0.80;;;;;;;0.52;54.09;97302.81;299395;214;63005;-56
2021/03/21 05:35:27;;;;;;;0.80;0.80;;;;;;;0.58;52.90;97306.47;299395;233;63008;-56
2021/03/21 05:41:11;;;;;;;0.80;0.80;;;;;;;0.55;53.12;97307.72;299395;202;63004;-56
2021/03/21 05:46:44;;;;;;;0.80;0.80;;;;;;;0.56;52.92;97306.69;299395;250;63009;-56
2021/03/21 05:52:27;;;;;;;0.80;0.80;;;;;;;0.56;53.31;97305.88;299395;247;63009;-56
2021/03/21 05:58:21;;;;;;;0.80;0.80;;;;;;;0.65;52.77;97289.34;299395;237;63004;-55
2021/03/21 06:04:00;;;;;;;0.70;0.70;;;;;;;0.67;52.94;97286.47;299395;240;63009;-55
2021/03/21 06:09:27;;;;;;;0.80;0.80;;;;;;;0.64;53.32;97270.88;299395;239;63005;-55
2021/03/21 06:15:05;;;;;;;0.80;0.80;;;;;;;0.69;53.05;97273.72;299395;209;63019;-55
2021/03/21 06:20:42;;;;;;;0.80;0.80;;;;;;;0.69;53.35;97272.91;299395;210;63004;-54
2021/03/21 06:26:09;;;;;;;0.80;0.80;;;;;;;0.78;52.65;97263.53;299395;210;63009;-55
2021/03/21 06:32:08;;;;;;;0.70;0.70;;;;;;;0.78;53.66;97264.34;299395;199;63005;-55
2021/03/21 06:37:57;;;;;;;0.80;0.80;;;;;;;0.76;52.86;97273.63;299395;257;63009;-53
2021/03/21 06:43:26;;;;;;;0.80;0.80;;;;;;;0.75;54.13;97270.13;299395;260;63004;-56
2021/03/21 06:49:03;;;;;;;0.70;0.70;;;;;;;0.80;53.04;97274.81;299395;230;63009;-55
2021/03/21 06:54:41;;;;;;;;;;;;;;;0.76;53.45;97270.94;299996;983;6000;-55
2021/03/21 07:00:55;;;;;;;0.80;0.80;;;;;;;0.79;53.02;97267.84;299400;219;63013;-56
2021/03/21 07:06:56;;;;;;;0.70;0.70;;;;;;;0.84;53.66;97268.00;299395;253;63009;-56
2021/03/21 07:12:38;;;;;;;0.70;0.70;;;;;;;0.90;54.03;97256.44;299395;216;63004;-55
2021/03/21 07:18:14;;;;;;;0.70;0.70;;;;;;;0.92;54.01;97254.34;299395;225;63009;-55
2021/03/21 07:23:50;;;;;;;0.70;0.70;;;;;;;0.86;54.89;97255.22;299417;225;63009;-56
2021/03/21 07:29:57;;;;;;;0.80;0.80;;;;;;;1.07;53.55;97241.41;299417;209;63005;-55
2021/03/21 07:35:17;;;;;;;0.80;0.80;;;;;;;1.05;53.53;97248.03;299417;206;63009;-56
2021/03/21 07:40:33;;;;;;;0.80;0.80;;;;;;;1.15;54.11;97253.66;299395;274;63004;-56
2021/03/21 07:46:06;;;;;;;0.80;0.80;;;;;;;1.15;52.66;97251.81;299395;285;63009;-58
2021/03/21 07:51:44;;;;;;;0.80;0.80;;;;;;;1.23;52.81;97256.84;299395;244;63005;-56
2021/03/21 07:56:55;;;;;;;0.80;0.80;;;;;;;1.24;54.20;97257.66;299395;271;63009;-56
2021/03/21 08:01:57;;;;;;;0.80;0.80;;;;;;;1.26;53.09;97243.03;299395;277;63005;-56
2021/03/21 08:07:16;;;;;;;0.80;0.80;;;;;;;1.33;52.88;97240.28;299395;253;63009;-55
2021/03/21 08:12:41;;;;;;;0.70;0.70;;;;;;;1.26;53.77;97240.38;299395;242;63004;-56
2021/03/21 08:17:52;;;;;;;0.70;0.70;;;;;;;1.43;52.67;97226.34;299417;242;63009;-56
2021/03/21 08:23:08;;;;;;;0.80;0.80;;;;;;;1.58;52.06;97232.13;299373;218;63005;-55
2021/03/21 08:28:17;;;;;;;0.75;0.75;;;;;;;1.67;52.58;97231.59;299395;223;63009;-55
2021/03/21 08:33:42;;;;;;;0.70;0.70;;;;;;;1.73;52.47;97211.13;299395;230;63004;-56
2021/03/21 08:39:13;;;;;;;0.90;0.90;;;;;;;1.96;50.63;97192.44;299395;199;63009;-56
2021/03/21 08:44:42;;;;;;;0.70;0.70;;;;;;;1.98;50.85;97190.34;299395;205;63005;-55
2021/03/21 08:49:48;;;;;;;0.70;0.70;;;;;;;2.06;51.00;97180.34;299395;273;63009;-56
2021/03/21 08:54:52;;;;;;;0.80;0.80;;;;;;;2.06;51.28;97180.34;299395;216;63004;-56
2021/03/21 08:59:53;;;;;;;0.80;0.80;;;;;;;2.17;51.51;97175.00;299417;197;63009;-56
2021/03/21 09:05:07;;;;;;;0.80;0.80;;;;;;;2.38;50.53;97168.25;299395;209;63004;-55
2021/03/21 09:10:35;;;;;;;0.70;0.70;;;;;;;2.24;51.41;97172.19;299395;196;63009;-55
2021/03/21 09:15:40;;;;;;;0.70;0.70;;;;;;;2.28;51.11;97184.91;299395;242;63005;-55
2021/03/21 09:20:43;;;;;;;0.80;0.80;;;;;;;2.29;51.22;97185.72;299417;270;63009;-56
2021/03/21 09:25:52;;;;;;;0.70;0.70;;;;;;;2.32;50.74;97190.59;299395;218;63004;-56
2021/03/21 09:30:54;;;;;;;0.80;0.80;;;;;;;2.29;50.90;97181.16;299395;216;63009;-56
2021/03/21 09:36:12;;;;;;;0.80;0.80;;;;;;;2.43;50.51;97192.44;299395;222;63005;-56
2021/03/21 09:41:14;;;;;;;0.80;0.80;;;;;;;2.33;52.13;97187.69;299395;212;63009;-56
2021/03/21 09:47:12;;;;;;;0.90;0.90;;;;;;;2.52;50.47;97195.59;299395;272;63005;-56
2021/03/21 09:52:36;;;;;;;0.80;0.80;;;;;;;2.41;51.00;97194.56;299395;203;63009;-56
2021/03/21 09:58:09;;;;;;;0.80;0.80;;;;;;;2.55;51.31;97189.75;299394;196;64008;-56
2021/03/21 10:03:32;;;;;;;1.35;1.35;;;;;;;2.69;50.92;97199.19;299395;202;63009;-57
2021/03/21 10:09:06;;;;;;;0.70;0.70;;;;;;;2.79;50.68;97201.25;299395;228;63005;-57
2021/03/21 10:14:48;;;;;;;0.70;0.70;;;;;;;2.84;51.16;97204.06;299395;199;63009;-56
2021/03/21 10:19:55;;;;;;;1.12;1.12;;;;;;;3.13;51.13;97195.00;299395;215;63005;-58
2021/03/21 10:24:59;;;;;;;0.70;0.70;;;;;;;3.15;52.35;97200.94;299395;245;63009;-55
2021/03/21 10:30:23;;;;;;;0.70;0.70;;;;;;;3.22;53.52;97222.25;299417;241;63005;-56
2021/03/21 10:35:51;;;;;;;0.70;0.70;;;;;;;3.12;56.03;97198.72;299373;197;63005;-56
2021/03/21 10:40:53;;;;;;;1.55;1.45;;;;;;;3.13;56.58;97202.22;299395;237;63009;-56
2021/03/21 10:45:56;;;;;;;1.10;1.10;;;;;;;3.27;56.41;97203.59;299395;235;63005;-59
2021/03/21 10:51:01;;;;;;;2.17;1.12;;;;;;;3.32;59.17;97207.19;299395;202;63009;-57
2021/03/21 10:56:22;;;;;;;0.80;0.80;;;;;;;3.22;61.17;97211.53;299417;197;63004;-56
2021/03/21 11:01:27;;;;;;;0.93;0.93;;;;;;;3.12;62.55;97206.78;299395;217;63009;-59
2021/03/21 11:06:31;;;;;;;0.75;0.75;;;;;;;2.99;63.81;97201.69;299395;212;63005;-56
2021/03/21 11:11:36;;;;;;;0.70;0.70;;;;;;;2.89;64.04;97185.41;299417;225;63008;-56
2021/03/21 11:16:37;;;;;;;0.70;0.70;;;;;;;3.05;64.72;97179.31;299417;204;63011;-56
2021/03/21 11:21:39;;;;;;;0.90;0.85;;;;;;;3.33;62.63;97155.19;299395;257;63009;-58
2021/03/21 11:26:41;;;;;;;0.70;0.70;;;;;;;3.20;62.69;97166.19;299395;271;63005;-55
2021/03/21 11:31:47;;;;;;;2.37;1.33;;;;;;;3.44;61.00;97160.75;299395;233;63019;-56
2021/03/21 11:37:03;;;;;;;0.70;0.70;;;;;;;3.48;60.24;97151.13;299395;199;63005;-56
2021/03/21 11:42:22;;;;;;;;;;;;;;;3.52;58.50;97136.19;299996;982;6005;-55
2021/03/21 11:47:31;;;;;;;0.70;0.70;;;;;;;3.40;58.82;97138.13;299400;214;63009;-55
2021/03/21 11:52:39;;;;;;;0.70;0.70;;;;;;;3.40;58.89;97138.13;299395;219;63005;-56
2021/03/21 11:57:57;;;;;;;0.77;0.77;;;;;;;3.61;58.36;97140.09;299395;232;63009;-55
2021/03/21 12:03:14;;;;;;;0.70;0.70;;;;;;;3.50;58.89;97151.69;299395;203;63004;-55
2021/03/21 12:08:40;;;;;;;0.70;0.70;;;;;;;3.54;58.83;97140.25;299395;247;63009;-54
2021/03/21 12:13:41;;;;;;;1.35;1.25;;;;;;;3.69;58.61;97139.72;299395;253;63005;-55
2021/03/21 12:18:54;;;;;;;0.70;0.70;;;;;;;3.60;59.61;97141.16;299395;199;63015;-55
2021/03/21 12:24:11;;;;;;;0.70;0.70;;;;;;;3.75;59.78;97133.38;299395;271;63004;-56
2021/03/21 12:29:36;;;;;;;0.70;0.70;;;;;;;3.68;60.21;97140.75;299395;244;63009;-55
2021/03/21 12:34:46;;;;;;;0.70;0.70;;;;;;;3.77;60.93;97133.13;299395;228;63005;-54
2021/03/21 12:40:01;;;;;;;0.70;0.70;;;;;;;3.96;61.96;97124.56;299395;207;63009;-56
2021/03/21 12:45:23;;;;;;;0.70;0.70;;;;;;;4.09;63.16;97130.69;299377;231;125004;-54
2021/03/21 12:50:46;;;;;;;0.70;0.70;;;;;;;3.97;64.75;97128.88;299395;240;63009;-56
2021/03/21 12:55:48;;;;;;;0.70;0.70;;;;;;;3.89;65.48;97115.88;299395;256;63004;-57
2021/03/21 13:00:51;;;;;;;0.70;0.70;;;;;;;3.97;65.71;97109.28;299395;252;63009;-53
2021/03/21 13:05:53;;;;;;;0.70;0.70;;;;;;;4.17;65.86;97106.88;299395;212;63005;-55
2021/03/21 13:10:55;;;;;;;0.70;0.70;;;;;;;4.27;65.52;97095.47;299395;282;63009;-55
2021/03/21 13:16:00;;;;;;;0.70;0.70;;;;;;;4.22;66.04;97088.16;299395;286;63008;-54
2021/03/21 13:21:02;;;;;;;0.70;0.70;;;;;;;4.45;66.09;97080.97;299417;218;63009;-58
2021/03/21 13:26:03;;;;;;;0.70;0.70;;;;;;;4.31;66.50;97069.75;299395;207;63005;-56
2021/03/21 13:31:05;;;;;;;2.92;1.25;;;;;;;4.33;67.43;97068.44;299395;330;63014;-57
2021/03/21 13:36:08;;;;;;;0.70;0.70;;;;;;;4.35;66.92;97068.19;299395;259;63005;-57
2021/03/21 13:41:10;;;;;;;0.80;0.80;;;;;;;4.30;67.14;97057.38;299395;317;63009;-59
2021/03/21 13:46:11;;;;;;;4.05;1.10;;;;;;;4.38;67.16;97055.09;299395;196;63004;-59
2021/03/21 13:51:12;;;;;;;0.90;0.90;;;;;;;4.50;66.67;97056.84;299395;197;63009;-58
2021/03/21 13:56:14;;;;;;;0.70;0.70;;;;;;;4.53;66.53;97043.69;299395;288;63005;-56
2021/03/21 14:01:16;;;;;;;0.70;0.70;;;;;;;4.54;66.40;97036.44;299395;204;63009;-55
2021/03/21 14:06:17;;;;;;;0.70;0.70;;;;;;;4.52;66.72;97047.44;299395;329;63005;-57
2021/03/21 14:11:18;;;;;;;0.77;0.77;;;;;;;4.37;67.38;97047.28;299395;249;63009;-59
2021/03/21 14:16:19;;;;;;;1.05;1.05;;;;;;;4.36;67.30;97051.03;299395;224;63004;-61
2021/03/21 14:21:20;;;;;;;0.70;0.70;;;;;;;4.19;67.54;97037.63;299395;244;63009;-61
2021/03/21 14:26:24;;;;;;;0.80;0.80;;;;;;;4.20;67.47;97039.25;299395;216;63005;-59
2021/03/21 14:31:25;;;;;;;0.80;0.80;;;;;;;4.16;67.57;97030.06;299417;212;63009;-59
2021/03/21 14:36:28;;;;;;;0.70;0.70;;;;;;;4.31;67.09;97034.84;299395;375;63005;-66
2021/03/21 14:41:32;;;;;;;1.17;1.10;;;;;;;4.35;66.30;97027.91;299395;222;63009;-58
2021/03/21 14:46:35;;;;;;;0.70;0.70;;;;;;;4.40;66.38;97024.47;299417;329;63004;-58
2021/03/21 14:51:36;;;;;;;0.70;0.70;;;;;;;4.54;65.57;97029.19;299373;216;63009;-58
2021/03/21 14:56:41;;;;;;;0.70;0.70;;;;;;;4.54;65.56;97023.81;299395;260;63005;-58
2021/03/21 15:01:42;;;;;;;0.73;0.73;;;;;;;4.60;65.71;97022.81;299417;242;63008;-60
2021/03/21 15:06:43;;;;;;;1.25;1.25;;;;;;;4.70;65.33;97017.56;299395;299;63004;-57
2021/03/21 15:11:44;;;;;;;0.90;0.90;;;;;;;4.82;65.19;97011.25;299396;369;63009;-58
2021/03/21 15:16:48;;;;;;;0.70;0.70;;;;;;;4.96;64.97;97007.06;299396;365;63012;-58
2021/03/21 15:21:51;;;;;;;0.80;0.80;;;;;;;5.03;64.32;97007.69;299396;230;63009;-58
2021/03/21 15:26:53;;;;;;;0.75;0.75;;;;;;;4.98;64.33;97010.31;299396;341;63005;-60
2021/03/21 15:31:54;;;;;;;0.70;0.70;;;;;;;4.83;65.19;97002.12;299396;245;63008;-58
2021/03/21 15:36:56;;;;;;;0.70;0.70;;;;;;;4.97;64.58;96992.56;299396;232;63004;-56
2021/03/21 15:41:57;;;;;;;1.27;1.02;;;;;;;4.95;64.08;97005.44;299396;209;63009;-60
2021/03/21 15:46:58;;;;;;;0.70;0.70;;;;;;;4.90;64.76;97000.00;299395;332;64004;-59
2021/03/21 15:52:01;;;;;;;0.70;0.70;;;;;;;4.90;64.53;97010.78;299397;330;63009;-61
2021/03/21 15:57:04;;;;;;;1.37;1.20;;;;;;;4.92;64.92;96997.87;299396;322;64009;-59
2021/03/21 16:02:06;;;;;;;0.70;0.70;;;;;;;4.96;64.74;97001.69;299397;308;63008;-57
2021/03/21 16:07:07;;;;;;;0.70;0.70;;;;;;;4.94;64.85;96998.44;299397;202;63004;-57
2021/03/21 16:12:09;;;;;;;1.67;1.58;;;;;;;4.96;64.30;96989.06;299396;332;63009;-57
2021/03/21 16:17:10;;;;;;;0.70;0.70;;;;;;;4.85;64.77;96983.88;299396;297;63005;-59
2021/03/21 16:22:15;;;;;;;3.42;3.17;;;;;;;4.84;64.89;96979.56;299396;235;63009;-58
2021/03/21 16:27:15;;;;;;;0.70;0.70;;;;;;;4.83;64.92;96986.81;299418;209;63005;-58
2021/03/21 16:32:16;;;;;;;1.23;1.23;;;;;;;4.86;64.54;96985.44;299396;300;63009;-59
2021/03/21 16:37:19;;;;;;;1.15;1.15;;;;;;;4.83;65.04;96991.37;299396;264;63004;-59
2021/03/21 16:42:20;;;;;;;0.70;0.70;;;;;;;4.81;64.52;96988.13;299396;196;63009;-57
2021/03/21 16:47:24;;;;;;;0.70;0.70;;;;;;;4.78;65.03;96984.06;299396;289;64005;-57
2021/03/21 16:52:25;;;;;;;1.00;1.00;;;;;;;4.75;65.15;96981.06;299419;274;63009;-60
2021/03/21 16:57:26;;;;;;;0.73;0.73;;;;;;;4.69;65.30;96981.00;299395;256;63005;-57
2021/03/21 17:02:29;;;;;;;0.70;0.70;;;;;;;4.65;65.57;96973.69;299395;198;63009;-59
2021/03/21 17:07:30;;;;;;;0.88;0.88;;;;;;;4.60;65.64;96979.81;299395;259;63004;-58
2021/03/21 17:12:31;;;;;;;2.53;1.50;;;;;;;4.61;65.61;96989.50;299395;318;63009;-57
2021/03/21 17:17:32;;;;;;;0.70;0.70;;;;;;;4.54;65.87;96999.63;299395;252;63005;-63
2021/03/21 17:22:33;;;;;;;1.17;1.08;;;;;;;4.49;66.20;96996.91;299395;228;63009;-61
2021/03/21 17:27:34;;;;;;;0.73;0.73;;;;;;;4.48;66.35;96992.59;299395;269;63010;-63
2021/03/21 17:32:35;;;;;;;0.82;0.82;;;;;;;4.42;66.67;96985.56;299395;308;63005;-61
2021/03/21 17:37:36;;;;;;;1.50;1.42;;;;;;;4.37;66.73;97009.66;299395;307;63004;-67
2021/03/21 17:42:37;;;;;;;0.80;0.80;;;;;;;4.33;66.88;97011.22;299395;210;63017;-61
2021/03/21 17:47:38;;;;;;;0.80;0.80;;;;;;;4.34;66.75;97010.16;299395;259;63005;-66
2021/03/21 17:52:39;;;;;;;1.40;1.40;;;;;;;4.30;67.04;97025.97;299395;317;63017;-58
2021/03/21 17:57:40;;;;;;;0.98;0.98;;;;;;;4.28;66.86;97027.28;299395;202;63005;-60
2021/03/21 18:02:41;;;;;;;0.70;0.70;;;;;;;4.25;67.07;97030.44;299395;226;63009;-58
2021/03/21 18:07:43;;;;;;;3.92;2.15;;;;;;;4.19;67.26;97037.63;299395;283;63004;-58
2021/03/21 18:12:44;;;;;;;1.73;1.62;;;;;;;4.18;66.73;97027.13;299395;289;63009;-60
2021/03/21 18:17:45;;;;;;;0.70;0.70;;;;;;;4.14;66.88;97040.28;299395;266;63005;-61
2021/03/21 18:22:48;;;;;;;0.70;0.70;;;;;;;4.08;66.85;97043.13;299395;256;63008;-61
2021/03/21 18:27:50;;;;;;;0.70;0.70;;;;;;;4.14;66.42;97048.31;299395;275;63004;-57
2021/03/21 18:32:54;;;;;;;0.85;0.85;;;;;;;4.11;66.35;97048.00;299395;222;63009;-58
2021/03/21 18:37:55;;;;;;;1.17;1.17;;;;;;;4.07;66.28;97033.44;299417;276;63004;-59
2021/03/21 18:43:01;;;;;;;1.77;1.55;;;;;;;4.02;66.53;97043.06;299395;202;63009;-61
2021/03/21 18:48:08;;;;;;;0.70;0.70;;;;;;;3.97;66.06;97053.72;299395;213;63005;-59
2021/03/21 18:53:10;;;;;;;1.12;1.12;;;;;;;3.99;65.98;97064.22;299395;218;63020;-56
2021/03/21 18:58:11;;;;;;;0.85;0.85;;;;;;;3.98;65.78;97074.13;299395;210;63004;-57
2021/03/21 19:03:16;;;;;;;1.52;1.48;;;;;;;3.98;66.01;97087.56;299395;209;63009;-58
2021/03/21 19:08:17;;;;;;;;;;;;;;;3.90;65.38;97079.91;299996;983;6000;-58
2021/03/21 19:13:24;;;;;;;0.82;0.82;;;;;;;3.85;66.07;97093.25;299400;232;63004;-57
2021/03/21 19:18:25;;;;;;;0.90;0.90;;;;;;;3.83;65.80;97094.56;299395;299;63009;-61
2021/03/21 19:23:26;;;;;;;1.10;1.10;;;;;;;3.77;66.46;97090.19;299395;214;63005;-58
2021/03/21 19:28:27;;;;;;;0.75;0.75;;;;;;;3.70;66.44;97091.16;299395;226;63009;-59
2021/03/21 19:33:28;;;;;;;2.20;1.62;;;;;;;3.65;66.70;97093.75;299395;196;63005;-58
2021/03/21 19:38:31;;;;;;;1.10;1.10;;;;;;;3.61;67.08;97094.47;299395;281;63009;-58
2021/03/21 19:43:35;;;;;;;1.10;1.10;;;;;;;3.55;67.45;97087.41;299395;211;63004;-55
2021/03/21 19:48:36;;;;;;;0.80;0.80;;;;;;;3.53;67.33;97094.88;299377;202;125013;-57
2021/03/21 19:53:37;;;;;;;1.12;1.05;;;;;;;3.48;67.82;97097.47;299394;219;64005;-61
2021/03/21 19:58:38;;;;;;;2.03;1.90;;;;;;;3.44;67.65;97109.78;299395;226;63009;-64
2021/03/21 20:03:39;;;;;;;1.00;1.00;;;;;;;3.41;67.53;97107.56;299395;215;63005;-57
2021/03/21 20:08:40;;;;;;;1.70;1.55;;;;;;;3.37;67.55;97113.41;299395;212;63020;-60
2021/03/21 20:13:41;;;;;;;3.47;3.17;;;;;;;3.34;67.39;97108.53;299395;217;63004;-58
2021/03/21 20:18:42;;;;;;;0.80;0.80;;;;;;;3.32;67.67;97124.06;299395;211;63009;-57
2021/03/21 20:23:43;;;;;;;0.98;0.98;;;;;;;3.31;67.11;97127.78;299395;252;63005;-66
2021/03/21 20:28:44;;;;;;;0.80;0.80;;;;;;;3.28;67.32;97128.25;299395;249;63009;-59
2021/03/21 20:33:45;;;;;;;0.73;0.73;;;;;;;3.28;67.15;97120.22;299395;229;63005;-59
2021/03/21 20:38:50;;;;;;;0.90;0.90;;;;;;;3.27;67.09;97123.94;299395;203;63009;-57
2021/03/21 20:43:51;;;;;;;2.67;2.15;;;;;;;3.22;67.57;97131.09;299395;212;63004;-57
2021/03/21 20:48:53;;;;;;;1.15;1.08;;;;;;;3.25;67.08;97118.00;299395;204;63009;-62
2021/03/21 20:53:55;;;;;;;0.93;0.93;;;;;;;3.22;67.01;97131.91;299395;216;63008;-56
2021/03/21 20:58:57;;;;;;;1.05;1.05;;;;;;;3.14;67.34;97128.78;299395;226;63009;-61
2021/03/21 21:03:58;;;;;;;1.83;1.75;;;;;;;3.17;67.02;97129.13;299395;198;63004;-59
2021/03/21 21:09:00;;;;;;;0.80;0.80;;;;;;;3.19;66.81;97136.94;299395;224;63009;-59
2021/03/21 21:14:02;;;;;;;0.90;0.90;;;;;;;3.18;67.10;97144.16;299395;218;63004;-59
2021/03/21 21:19:03;;;;;;;0.80;0.80;;;;;;;3.21;67.01;97145.53;299395;214;63009;-57
2021/03/21 21:24:05;;;;;;;0.70;0.70;;;;;;;3.19;67.24;97150.34;299395;240;63005;-58
2021/03/21 21:29:07;;;;;;;0.80;0.80;;;;;;;3.21;66.73;97151.72;299395;216;63008;-57
2021/03/21 21:34:08;;;;;;;0.80;0.80;;;;;;;3.15;67.23;97135.78;299395;265;63000;-58
2021/03/21 21:39:09;;;;;;;0.88;0.88;;;;;;;3.13;67.18;97137.88;299395;206;63009;-58
2021/03/21 21:44:11;;;;;;;2.22;2.03;;;;;;;3.16;66.76;97145.44;299394;241;64008;-58
2021/03/21 21:49:15;;;;;;;1.30;1.20;;;;;;;3.11;67.13;97146.19;299395;259;63009;-61
2021/03/21 21:54:17;;;;;;;1.63;1.53;;;;;;;3.19;67.01;97144.97;299417;249;63005;-60
2021/03/21 21:59:18;;;;;;;0.82;0.82;;;;;;;3.19;66.91;97153.00;299373;202;63008;-58
2021/03/21 22:04:19;;;;;;;0.90;0.90;;;;;;;3.14;67.44;97150.22;299395;214;63004;-56
2021/03/21 22:09:23;;;;;;;0.80;0.80;;;;;;;3.14;66.96;97161.78;299395;203;63009;-57
2021/03/21 22:14:24;;;;;;;1.10;1.10;;;;;;;3.18;67.04;97154.06;299417;250;63004;-59
2021/03/21 22:19:28;;;;;;;0.93;0.93;;;;;;;3.11;67.51;97156.91;299395;220;63009;-59
2021/03/21 22:24:31;;;;;;;0.87;0.87;;;;;;;3.13;66.92;97154.78;299417;241;63005;-61
2021/03/21 22:29:32;;;;;;;0.88;0.88;;;;;;;3.07;67.18;97158.44;299395;196;63009;-58
2021/03/21 22:34:34;;;;;;;2.47;1.27;;;;;;;3.07;67.46;97166.47;299395;227;63004;-60
2021/03/21 22:39:37;;;;;;;0.90;0.90;;;;;;;3.07;67.55;97166.47;299395;204;63009;-58
2021/03/21 22:44:38;;;;;;;0.90;0.90;;;;;;;3.07;67.53;97155.75;299395;234;63005;-60
2021/03/21 22:49:39;;;;;;;1.15;1.00;;;;;;;3.12;67.45;97163.88;299395;221;63009;-57
2021/03/21 22:54:40;;;;;;;0.90;0.90;;;;;;;3.12;67.69;97161.19;299395;225;63005;-56
2021/03/21 22:59:42;;;;;;;2.00;1.90;;;;;;;3.02;67.55;97169.06;299395;196;63009;-56
2021/03/21 23:04:43;;;;;;;0.80;0.80;;;;;;;2.92;68.22;97168.84;299395;221;63004;-58
2021/03/21 23:09:46;;;;;;;0.80;0.80;;;;;;;2.80;68.37;97165.37;299395;204;63009;-58
2021/03/21 23:14:47;;;;;;;0.70;0.70;;;;;;;2.72;69.02;97152.38;299395;225;63015;-57
2021/03/21 23:19:47;;;;;;;1.27;1.10;;;;;;;2.64;69.09;97151.69;299395;218;63009;-57
2021/03/21 23:24:48;;;;;;;0.80;0.80;;;;;;;2.65;69.38;97161.34;299395;202;63005;-57
2021/03/21 23:29:49;;;;;;;1.92;1.80;;;;;;;2.57;69.48;97161.69;299395;225;63009;-57
2021/03/21 23:34:50;;;;;;;1.20;1.20;;;;;;;2.53;69.82;97170.44;299395;198;63004;-59
2021/03/21 23:39:51;;;;;;;1.25;1.02;;;;;;;2.46;70.37;97170.56;299395;206;63009;-59
2021/03/21 23:44:52;;;;;;;0.80;0.80;;;;;;;2.49;70.06;97161.22;299395;204;63005;-60
2021/03/21 23:49:53;;;;;;;0.80;0.80;;;;;;;2.44;70.23;97167.28;299395;196;63009;-55
2021/03/21 23:54:54;;;;;;;0.80;0.80;;;;;;;2.31;70.70;97156.84;299395;209;63005;-58
2021/03/21 23:59:55;;;;;;;0.80;0.80;;;;;;;2.13;71.49;97173.81;299395;246;63009;-56
